createdAt,value
2023-02-18T08:14:54.445Z,100.00
2023-02-18T08:17:25.445Z,100.00
2023-02-18T08:19:53.822Z,100.00
2023-02-18T08:22:22.337Z,100.00
2023-02-18T08:24:51.493Z,100.00
2023-02-18T08:27:19.805Z,100.00
2023-02-18T08:29:50.247Z,100.00
2023-02-18T08:32:19.104Z,100.00
2023-02-18T08:34:48.129Z,100.00
2023-02-18T08:37:16.359Z,100.00
2023-02-18T08:39:45.163Z,100.00
2023-02-18T08:42:13.833Z,100.00
2023-02-18T08:44:45.084Z,100.00
2023-02-18T08:48:19.888Z,100.00
2023-02-18T08:50:03.510Z,100.00
2023-02-18T08:52:32.126Z,100.00
2023-02-18T08:55:00.655Z,100.00
2023-02-18T08:57:29.709Z,100.00
2023-02-18T08:59:58.360Z,100.00
2023-02-18T09:02:29.511Z,100.00
2023-02-18T09:04:57.878Z,100.00
2023-02-18T09:07:26.906Z,100.00
2023-02-18T09:16:09.232Z,100.00
2023-02-18T09:18:38.432Z,100.00
2023-02-18T09:21:08.286Z,100.00
2023-02-18T09:23:44.784Z,99.86
2023-02-18T09:26:15.429Z,99.86
2023-02-18T09:28:43.932Z,99.76
2023-02-18T09:31:17.360Z,100.00
2023-02-18T09:33:47.596Z,99.93
2023-02-18T09:36:16.313Z,99.65
2023-02-18T09:38:45.093Z,99.32
2023-02-18T09:41:30.975Z,98.95
2023-02-18T09:44:01.754Z,98.59
2023-02-18T09:47:13.990Z,97.87
2023-02-18T09:49:49.004Z,97.00
2023-02-18T09:52:32.683Z,97.42
2023-02-18T09:55:01.131Z,97.34
2023-02-18T09:57:51.630Z,96.60
2023-02-18T10:00:36.614Z,95.44
2023-02-18T10:03:25.775Z,94.92
2023-02-18T10:06:04.759Z,94.71
2023-02-18T10:08:38.663Z,94.09
2023-02-18T10:11:32.965Z,93.59
2023-02-18T10:14:02.832Z,92.76
2023-02-18T10:16:31.719Z,91.91
2023-02-18T10:19:01.643Z,91.76
2023-02-18T10:21:36.251Z,91.02
2023-02-18T10:24:39.974Z,90.02
2023-02-18T10:27:09.790Z,88.97
2023-02-18T10:29:38.374Z,87.72
2023-02-18T10:32:19.246Z,87.63
2023-02-18T10:34:52.139Z,87.67
2023-02-18T10:37:43.263Z,86.85
2023-02-18T10:40:30.838Z,86.45
2023-02-18T10:43:37.023Z,85.84
2023-02-18T10:46:14.756Z,85.73
2023-02-18T10:49:24.774Z,85.39
2023-02-18T10:51:55.304Z,84.42
2023-02-18T10:54:27.782Z,84.12
2023-02-18T10:57:00.468Z,84.51
2023-02-18T10:59:33.242Z,84.85
2023-02-18T11:02:12.678Z,84.15
2023-02-18T11:04:42.714Z,83.27
2023-02-18T11:07:23.136Z,82.18
2023-02-18T11:09:55.284Z,82.13
2023-02-18T11:12:24.678Z,81.99
2023-02-18T11:15:07.828Z,82.03
2023-02-18T11:17:39.767Z,81.69
2023-02-18T11:20:30.533Z,81.40
2023-02-18T11:23:20.595Z,81.53
2023-02-18T11:26:00.568Z,80.85
2023-02-18T11:28:41.956Z,80.15
2023-02-18T11:31:11.317Z,79.69
2023-02-18T11:33:44.682Z,79.58
2023-02-18T11:36:35.674Z,78.90
2023-02-18T11:39:15.231Z,77.57
2023-02-18T11:41:58.381Z,76.81
2023-02-18T11:44:42.031Z,76.25
2023-02-18T11:47:13.566Z,76.86
2023-02-18T11:49:43.336Z,78.02
2023-02-18T11:52:20.362Z,77.94
2023-02-18T11:55:09.144Z,78.16
2023-02-18T11:57:44.810Z,78.22
2023-02-18T12:00:22.703Z,78.42
2023-02-18T12:02:52.543Z,78.97
2023-02-18T12:05:25.619Z,79.45
2023-02-18T12:08:03.733Z,79.26
2023-02-18T12:11:04.016Z,79.17
2023-02-18T12:13:35.272Z,78.38
2023-02-18T12:16:06.504Z,78.70
2023-02-18T12:18:44.923Z,79.06
2023-02-18T12:21:18.409Z,79.14
2023-02-18T12:24:20.324Z,79.42
2023-02-18T12:27:39.844Z,79.60
2023-02-18T12:30:37.170Z,79.39
2023-02-18T12:33:49.734Z,79.48
2023-02-18T12:36:27.714Z,79.61
2023-02-18T12:39:08.089Z,79.34
2023-02-18T12:41:55.083Z,79.16
2023-02-18T12:44:32.487Z,78.87
2023-02-18T12:47:22.460Z,78.80
2023-02-18T12:50:14.328Z,78.86
2023-02-18T12:52:43.146Z,78.79
2023-02-18T12:55:27.888Z,78.71
2023-02-18T12:58:02.946Z,78.75
2023-02-18T13:00:35.892Z,78.29
2023-02-18T13:03:05.226Z,78.74
2023-02-18T13:05:41.744Z,79.14
2023-02-18T13:08:29.546Z,79.61
2023-02-18T13:11:26.915Z,80.09
2023-02-18T13:14:11.137Z,80.68
2023-02-18T13:16:40.458Z,81.17
2023-02-18T13:19:17.225Z,81.65
2023-02-18T13:21:46.828Z,81.71
2023-02-18T13:24:22.490Z,81.79
2023-02-18T13:26:51.025Z,81.29
2023-02-18T13:29:35.381Z,80.95
2023-02-18T13:32:04.137Z,79.75
2023-02-18T13:35:09.558Z,78.73
2023-02-18T13:37:56.992Z,77.51
2023-02-18T13:40:30.254Z,76.72
2023-02-18T13:43:32.198Z,76.00
2023-02-18T13:46:16.614Z,76.08
2023-02-18T13:49:01.186Z,75.78
2023-02-18T13:51:34.666Z,75.70
2023-02-18T13:54:11.532Z,74.67
2023-02-18T13:56:51.118Z,74.34
2023-02-18T13:59:23.870Z,74.36
2023-02-18T14:01:52.896Z,74.56
2023-02-18T14:04:41.201Z,74.57
2023-02-18T14:07:33.909Z,74.41
2023-02-18T14:10:07.190Z,74.65
2023-02-18T14:12:44.368Z,74.61
2023-02-18T14:15:18.791Z,74.95
2023-02-18T14:17:50.906Z,74.68
2023-02-18T14:20:19.581Z,74.81
2023-02-18T14:22:51.647Z,75.03
2023-02-18T14:25:27.222Z,75.29
2023-02-18T14:27:55.676Z,75.37
2023-02-18T14:30:24.139Z,75.70
2023-02-18T14:32:53.344Z,75.71
2023-02-18T14:35:35.826Z,75.93
2023-02-18T14:38:23.144Z,75.71
2023-02-18T14:40:55.229Z,75.56
2023-02-18T14:43:45.591Z,75.69
2023-02-18T14:46:17.138Z,76.01
2023-02-18T14:49:10.775Z,76.03
2023-02-18T14:51:40.703Z,76.25
2023-02-18T14:54:13.698Z,76.28
2023-02-18T14:57:04.101Z,76.17
2023-02-18T14:59:35.507Z,76.10
2023-02-18T15:02:04.184Z,76.39
2023-02-18T15:04:32.736Z,76.82
2023-02-18T15:07:02.976Z,76.89
2023-02-18T15:09:31.533Z,77.09
2023-02-18T15:12:07.680Z,77.15
2023-02-18T15:14:41.077Z,77.36
2023-02-18T15:17:19.260Z,77.41
2023-02-18T15:19:55.891Z,77.65
2023-02-18T15:22:27.608Z,77.99
2023-02-18T15:24:56.169Z,78.43
2023-02-18T15:27:31.620Z,78.95
2023-02-18T15:30:26.356Z,79.67
2023-02-18T15:32:56.335Z,80.38
2023-02-18T15:35:33.266Z,80.68
2023-02-18T15:38:01.916Z,80.95
2023-02-18T15:40:32.164Z,80.72
2023-02-18T15:43:01.344Z,79.15
2023-02-18T15:45:38.788Z,77.71
2023-02-18T15:48:07.372Z,76.05
2023-02-18T15:50:38.008Z,75.03
2023-02-18T15:53:10.673Z,74.82
2023-02-18T15:55:40.510Z,73.56
2023-02-18T15:58:28.114Z,72.11
2023-02-18T16:00:59.183Z,72.21
2023-02-18T16:03:46.787Z,71.70
2023-02-18T16:06:19.988Z,70.05
2023-02-18T16:09:00.234Z,68.72
2023-02-18T16:11:35.352Z,67.59
2023-02-18T16:14:06.203Z,65.99
2023-02-18T16:16:36.493Z,65.64
2023-02-18T16:19:04.891Z,66.37
2023-02-18T16:21:41.178Z,66.45
2023-02-18T16:24:27.040Z,65.31
2023-02-18T16:26:57.647Z,65.68
2023-02-18T16:29:40.964Z,65.83
2023-02-18T16:32:09.418Z,65.60
2023-02-18T16:34:37.864Z,65.89
2023-02-18T16:37:24.673Z,65.99
2023-02-18T16:39:55.500Z,65.37
2023-02-18T16:42:24.690Z,65.29
2023-02-18T16:44:53.311Z,66.02
2023-02-18T16:47:22.074Z,66.77
2023-02-18T16:49:50.750Z,65.60
2023-02-18T16:52:19.711Z,66.08
2023-02-18T16:54:49.322Z,66.63
2023-02-18T16:57:18.574Z,66.82
2023-02-18T16:59:47.015Z,66.95
2023-02-18T17:02:19.366Z,67.82
2023-02-18T17:04:48.261Z,68.66
2023-02-18T17:07:16.680Z,69.63
2023-02-18T17:09:47.422Z,70.06
2023-02-18T17:12:16.222Z,70.79
2023-02-18T17:14:44.774Z,71.95
2023-02-18T17:17:18.317Z,73.10
2023-02-18T17:19:49.367Z,72.86
2023-02-18T17:22:17.642Z,72.68
2023-02-18T17:24:46.028Z,72.81
2023-02-18T17:27:14.426Z,72.64
2023-02-18T17:29:43.145Z,72.47
2023-02-18T17:32:11.758Z,72.53
2023-02-18T17:34:41.965Z,69.98
2023-02-18T17:37:13.352Z,67.76
2023-02-18T17:39:43.035Z,67.62
2023-02-18T17:42:14.869Z,65.64
2023-02-18T17:44:46.746Z,65.36
2023-02-18T17:47:16.615Z,65.66
2023-02-18T17:49:46.956Z,65.96
2023-02-18T17:52:28.876Z,66.03
2023-02-18T17:54:59.352Z,65.84
2023-02-18T17:57:29.296Z,66.33
2023-02-18T17:59:58.675Z,66.23
2023-02-18T18:02:31.280Z,66.59
2023-02-18T18:05:00.128Z,66.64
2023-02-18T18:07:29.830Z,65.96
2023-02-18T18:09:58.938Z,67.07
2023-02-18T18:12:28.505Z,68.33
2023-02-18T18:14:58.125Z,69.49
2023-02-18T18:17:27.081Z,69.56
2023-02-18T18:19:55.573Z,69.53
2023-02-18T18:22:23.947Z,68.42
2023-02-18T18:24:52.679Z,67.16
2023-02-18T18:27:21.198Z,67.29
2023-02-18T18:29:49.835Z,67.68
2023-02-18T18:32:18.208Z,67.20
2023-02-18T18:34:49.127Z,66.94
2023-02-18T18:37:17.722Z,66.67
2023-02-18T18:39:46.301Z,66.72
2023-02-18T18:42:14.687Z,66.33
2023-02-18T18:44:43.400Z,66.00
2023-02-18T18:47:12.370Z,65.96
2023-02-18T18:49:40.787Z,65.56
2023-02-18T18:52:11.181Z,64.56
2023-02-18T18:54:41.457Z,63.49
2023-02-18T18:57:09.936Z,63.80
2023-02-18T18:59:44.765Z,63.69
2023-02-18T19:02:16.355Z,64.16
2023-02-18T19:04:44.632Z,67.52
2023-02-18T19:07:13.252Z,70.36
2023-02-18T19:09:41.935Z,74.29
2023-02-18T19:12:10.834Z,77.84
2023-02-18T19:14:39.627Z,80.82
2023-02-18T19:17:14.229Z,83.37
2023-02-18T19:19:44.654Z,85.62
2023-02-18T19:22:12.911Z,87.48
2023-02-18T19:24:43.107Z,89.14
2023-02-18T19:27:11.486Z,90.60
2023-02-18T19:29:39.955Z,91.51
2023-02-18T19:32:08.232Z,92.52
2023-02-18T19:34:37.115Z,93.08
2023-02-18T19:37:07.757Z,93.55
2023-02-18T19:39:36.324Z,94.98
2023-02-18T19:42:04.596Z,95.81
2023-02-18T19:44:34.309Z,97.75
2023-02-18T19:47:03.089Z,99.11
2023-02-18T19:49:31.872Z,99.80
2023-02-18T19:52:04.295Z,100.00
2023-02-18T19:54:33.373Z,100.00
2023-02-18T19:57:05.986Z,100.00
2023-02-18T19:59:36.409Z,100.00
2023-02-18T20:02:05.477Z,100.00
2023-02-18T20:04:34.812Z,100.00
2023-02-18T20:07:04.168Z,100.00
2023-02-18T20:09:33.183Z,100.00
2023-02-18T20:12:01.745Z,100.00
2023-02-18T20:14:30.414Z,100.00
2023-02-18T20:16:58.774Z,100.00
2023-02-18T20:19:29.379Z,100.00
2023-02-18T20:22:00.267Z,100.00
2023-02-18T20:24:29.791Z,100.00
2023-02-18T20:26:58.681Z,100.00
2023-02-18T20:29:27.433Z,100.00
2023-02-18T20:31:55.924Z,100.00
2023-02-18T20:34:24.505Z,100.00
2023-02-18T20:36:53.250Z,100.00
2023-02-18T20:39:22.764Z,100.00
2023-02-18T20:41:51.283Z,100.00
2023-02-18T20:44:20.414Z,100.00
2023-02-18T20:46:49.186Z,100.00
2023-02-18T20:49:19.365Z,100.00
2023-02-18T20:51:47.906Z,100.00
2023-02-18T20:54:20.267Z,100.00
2023-02-18T20:56:49.559Z,100.00
2023-02-18T20:59:19.370Z,100.00
2023-02-18T21:01:47.796Z,100.00
2023-02-18T21:04:17.959Z,100.00
2023-02-18T21:06:46.899Z,100.00
2023-02-18T21:09:19.084Z,100.00
2023-02-18T21:11:47.813Z,100.00
2023-02-18T21:14:16.657Z,99.89
2023-02-18T21:16:45.785Z,99.71
2023-02-18T21:19:17.095Z,98.38
2023-02-18T21:21:46.945Z,99.09
2023-02-18T21:24:16.205Z,100.00
2023-02-18T21:26:44.796Z,100.00
2023-02-18T21:29:18.379Z,100.00
2023-02-18T21:31:46.774Z,100.00
2023-02-18T21:34:15.819Z,100.00
2023-02-18T21:36:44.371Z,100.00
2023-02-18T21:39:12.742Z,100.00
2023-02-18T21:41:44.197Z,100.00
2023-02-18T21:44:12.526Z,100.00
2023-02-18T21:46:41.306Z,100.00
2023-02-18T21:49:10.698Z,100.00
2023-02-18T21:51:57.389Z,100.00
2023-02-18T21:54:40.110Z,100.00
2023-02-18T21:57:11.848Z,100.00
2023-02-18T21:59:40.679Z,100.00
2023-02-18T22:02:14.930Z,100.00
2023-02-18T22:04:43.344Z,100.00
2023-02-18T22:07:11.719Z,100.00
2023-02-18T22:09:40.860Z,100.00
2023-02-18T22:12:11.932Z,100.00
2023-02-18T22:14:42.879Z,100.00
2023-02-18T22:17:11.388Z,100.00
2023-02-18T22:19:41.221Z,100.00
2023-02-18T22:22:09.731Z,100.00
2023-02-18T22:24:39.620Z,100.00
2023-02-18T22:27:08.124Z,100.00
2023-02-18T22:29:36.570Z,100.00
2023-02-18T22:32:05.114Z,100.00
2023-02-18T22:34:34.043Z,100.00
2023-02-18T22:37:02.487Z,100.00
2023-02-18T22:39:30.870Z,100.00
2023-02-18T22:41:59.348Z,100.00
2023-02-18T22:44:27.854Z,100.00
2023-02-18T22:46:59.366Z,100.00
2023-02-18T22:49:27.685Z,100.00
2023-02-18T22:51:58.637Z,100.00
2023-02-18T22:54:28.656Z,100.00
2023-02-18T22:56:57.224Z,100.00
2023-02-18T22:59:28.228Z,100.00
2023-02-18T23:01:57.605Z,100.00
2023-02-18T23:04:26.059Z,100.00
2023-02-18T23:06:56.821Z,100.00
2023-02-18T23:09:25.472Z,100.00
2023-02-18T23:11:56.536Z,100.00
2023-02-18T23:14:30.658Z,100.00
2023-02-18T23:17:13.370Z,100.00
2023-02-18T23:19:52.079Z,100.00
2023-02-18T23:22:32.756Z,100.00
2023-02-18T23:25:01.290Z,100.00
2023-02-18T23:27:30.645Z,100.00
2023-02-18T23:29:59.342Z,100.00
2023-02-18T23:32:29.231Z,100.00
2023-02-18T23:34:58.019Z,100.00
2023-02-18T23:37:45.460Z,100.00
2023-02-18T23:40:14.979Z,100.00
2023-02-18T23:42:43.760Z,100.00
2023-02-18T23:45:12.628Z,100.00
2023-02-18T23:47:44.311Z,100.00
2023-02-18T23:50:19.045Z,100.00
2023-02-18T23:52:48.990Z,100.00
2023-02-18T23:55:17.397Z,100.00
2023-02-18T23:57:45.685Z,100.00
